Time;durP1;ratioP1;P1;durP2;ratioP2;P2;SDS_P1;SDS_P2;PMS_P1;PMS_P2;Temp;Humidity;BMP_temperature;BMP_pressure;BME280_temperature;BME280_humidity;BME280_pressure;Samples;Min_cycle;Max_cycle;Signal;HPM_P1;HPM_P2
2023/01/31 00:01:18;;;;;;;13.55;2.75;;;2.90;99.90;;;;;;4998246;28;20052;-78
2023/01/31 00:03:44;;;;;;;16.45;2.55;;;3.20;99.90;;;;;;5014464;28;20046;-80
2023/01/31 00:06:19;;;;;;;8.40;2.10;;;3.40;99.90;;;;;;5014235;28;20474;-79
2023/01/31 00:08:47;;;;;;;16.15;3.05;;;3.00;99.90;;;;;;5014423;28;20132;-79
2023/01/31 00:11:14;;;;;;;10.85;2.40;;;2.90;99.90;;;;;;5014540;28;20080;-80
2023/01/31 00:13:40;;;;;;;10.70;2.10;;;3.40;99.90;;;;;;4998114;28;20054;-80
2023/01/31 00:16:07;;;;;;;9.48;2.00;;;3.60;99.90;;;;;;5014048;28;20065;-79
2023/01/31 00:18:33;;;;;;;9.77;1.85;;;2.90;99.90;;;;;;4998513;28;20130;-79
2023/01/31 00:21:05;;;;;;;11.70;2.20;;;3.10;99.90;;;;;;5014383;28;20050;-79
2023/01/31 00:23:31;;;;;;;8.38;2.75;;;3.60;99.90;;;;;;4998800;28;20053;-79
2023/01/31 00:26:06;;;;;;;8.57;2.00;;;3.50;99.90;;;;;;4997861;28;20386;-79
2023/01/31 00:28:32;;;;;;;6.65;2.33;;;3.40;99.90;;;;;;5014135;28;20129;-80
2023/01/31 00:30:58;;;;;;;6.60;2.00;;;2.70;99.90;;;;;;4998127;28;20088;-79
2023/01/31 00:33:23;;;;;;;10.50;2.33;;;3.40;99.90;;;;;;4997635;28;20046;-79
2023/01/31 00:35:49;;;;;;;12.02;2.40;;;2.70;99.90;;;;;;4998546;28;20045;-80
2023/01/31 00:38:15;;;;;;;11.02;2.83;;;2.70;99.90;;;;;;4997724;28;20045;-79
2023/01/31 00:40:40;;;;;;;11.20;2.17;;;3.70;99.90;;;;;;5013923;28;20093;-79
2023/01/31 00:43:06;;;;;;;9.68;2.80;;;2.70;99.90;;;;;;4997878;28;20081;-80
2023/01/31 00:45:32;;;;;;;9.45;2.15;;;3.00;99.90;;;;;;5013851;28;20045;-80
2023/01/31 00:47:57;;;;;;;8.85;2.17;;;2.60;99.90;;;;;;4997525;28;20050;-80
2023/01/31 00:50:24;;;;;;;5.38;1.90;;;2.50;99.90;;;;;;4997766;28;20100;-80
2023/01/31 00:52:50;;;;;;;8.20;2.08;;;2.50;99.90;;;;;;5013780;28;20052;-79
2023/01/31 00:55:15;;;;;;;6.13;2.03;;;3.00;99.90;;;;;;5013803;28;20046;-79
2023/01/31 00:57:41;;;;;;;10.75;2.10;;;2.80;99.90;;;;;;4997429;28;20050;-78
2023/01/31 01:00:07;;;;;;;7.40;2.38;;;2.50;99.90;;;;;;4997626;28;20053;-80
2023/01/31 01:02:33;;;;;;;6.53;1.67;;;2.50;99.90;;;;;;4997265;28;20050;-79
2023/01/31 01:04:59;;;;;;;5.25;1.48;;;2.50;99.90;;;;;;5013580;28;20046;-80
2023/01/31 01:07:24;;;;;;;10.02;1.80;;;2.70;99.90;;;;;;5012667;28;20046;-80
2023/01/31 01:09:53;;;;;;;11.77;2.38;;;3.20;99.90;;;;;;4996278;28;20548;-79
2023/01/31 01:12:18;;;;;;;8.40;2.95;;;2.40;99.90;;;;;;5013426;28;20061;-78
2023/01/31 01:14:44;;;;;;;22.65;4.25;;;2.40;99.90;;;;;;4996937;28;20445;-80
2023/01/31 01:17:10;;;;;;;7.85;2.00;;;2.40;99.90;;;;;;4997243;28;20517;-81
2023/01/31 01:19:36;;;;;;;4.93;1.83;;;2.40;99.90;;;;;;5013394;28;20058;-81
2023/01/31 01:22:03;;;;;;;8.07;2.33;;;2.80;99.90;;;;;;4997003;28;20474;-81
2023/01/31 01:24:29;;;;;;;9.10;2.63;;;2.90;99.90;;;;;;5013252;28;20510;-81
2023/01/31 01:26:54;;;;;;;8.27;2.20;;;2.30;99.90;;;;;;4996636;28;20070;-80
2023/01/31 01:29:20;;;;;;;9.88;2.33;;;2.20;99.90;;;;;;4997091;28;20132;-81
2023/01/31 01:31:46;;;;;;;7.97;2.13;;;2.10;99.90;;;;;;4996791;28;20103;-81
2023/01/31 01:34:14;;;;;;;7.60;2.05;;;2.10;99.90;;;;;;4996815;28;20137;-81
2023/01/31 01:36:40;;;;;;;9.40;1.75;;;2.10;99.90;;;;;;4996919;28;20041;-81
2023/01/31 01:39:08;;;;;;;7.97;2.08;;;2.40;99.90;;;;;;4996752;28;20057;-81
2023/01/31 01:41:35;;;;;;;10.90;2.83;;;1.90;99.90;;;;;;5013225;28;20038;-80
2023/01/31 01:44:04;;;;;;;9.52;1.67;;;2.20;99.90;;;;;;5012611;28;20046;-80
2023/01/31 01:46:44;;;;;;;9.88;2.60;;;2.50;99.90;;;;;;5013442;28;20046;-81
2023/01/31 01:49:16;;;;;;;11.82;3.30;;;1.80;99.90;;;;;;4997254;28;20049;-80
2023/01/31 01:51:42;;;;;;;11.75;2.30;;;1.80;99.90;;;;;;5013437;28;20077;-81
2023/01/31 01:54:13;;;;;;;11.02;2.13;;;1.70;99.90;;;;;;5013008;28;20046;-80
2023/01/31 01:56:42;;;;;;;7.82;2.22;;;1.70;99.90;;;;;;5014544;28;20045;-80
2023/01/31 01:59:11;;;;;;;6.57;1.60;;;1.70;99.90;;;;;;5012706;28;20497;-80
2023/01/31 02:01:37;;;;;;;14.07;1.85;;;1.60;99.90;;;;;;4996222;28;20053;-80
2023/01/31 02:04:08;;;;;;;10.65;2.17;;;1.60;99.90;;;;;;4996659;28;20089;-81
2023/01/31 02:06:34;;;;;;;7.35;2.30;;;1.60;99.90;;;;;;4995623;28;20500;-80
2023/01/31 02:09:00;;;;;;;10.07;1.75;;;1.60;99.90;;;;;;4980590;28;20053;-80
2023/01/31 02:11:28;;;;;;;10.68;2.88;;;2.30;99.90;;;;;;5013391;28;20077;-81
2023/01/31 02:14:00;;;;;;;12.82;2.35;;;1.60;99.90;;;;;;5012691;28;20391;-81
2023/01/31 02:16:26;;;;;;;9.27;1.63;;;1.60;99.90;;;;;;5012048;28;20097;-81
2023/01/31 02:18:52;;;;;;;6.47;1.52;;;1.50;99.90;;;;;;5012393;28;20097;-81
2023/01/31 02:21:36;;;;;;;6.88;2.10;;;1.50;99.90;;;;;;5012259;28;20325;-81
2023/01/31 02:24:30;;;;;;;9.93;1.90;;;1.90;99.90;;;;;;5013194;28;20401;-81
2023/01/31 02:27:26;;;;;;;10.38;2.03;;;1.50;99.90;;;;;;5012146;28;20093;-80
2023/01/31 02:30:27;;;;;;;7.63;1.80;;;1.60;99.90;;;;;;5012387;28;20053;-80
2023/01/31 02:33:19;;;;;;;10.25;1.92;;;1.60;99.90;;;;;;5028036;28;20387;-77
2023/01/31 02:36:15;;;;;;;9.18;2.33;;;1.70;99.90;;;;;;5008437;28;20185;-78
2023/01/31 02:39:05;;;;;;;5.95;2.28;;;1.90;99.90;;;;;;5007861;28;20058;-78
2023/01/31 02:41:55;;;;;;;8.93;2.17;;;1.80;99.90;;;;;;4996671;28;20133;-79
2023/01/31 02:47:32;;;;;;;8.50;2.22;;;1.90;99.90;;;;;;5012210;28;20056;-77
2023/01/31 02:50:11;;;;;;;7.22;1.50;;;1.90;99.90;;;;;;5012980;28;20143;-77
2023/01/31 02:52:48;;;;;;;6.63;1.73;;;2.00;99.90;;;;;;4996647;28;20056;-78
2023/01/31 02:58:11;;;;;;;7.93;2.10;;;2.10;99.90;;;;;;5012430;28;20390;-78
2023/01/31 03:00:40;;;;;;;9.55;1.60;;;2.10;99.90;;;;;;4996231;28;20049;-77
2023/01/31 03:03:12;;;;;;;7.10;1.70;;;2.30;99.90;;;;;;5012081;28;20450;-78
2023/01/31 03:05:38;;;;;;;6.30;1.70;;;2.80;99.90;;;;;;5012006;28;20052;-77
2023/01/31 03:08:06;;;;;;;8.60;1.60;;;3.00;99.90;;;;;;5011865;28;20042;-77
2023/01/31 03:10:51;;;;;;;4.38;1.80;;;2.40;99.90;;;;;;5011946;28;20441;-77
2023/01/31 03:13:29;;;;;;;9.07;2.30;;;2.40;99.90;;;;;;5012846;28;20054;-77
2023/01/31 03:19:15;;;;;;;12.48;2.25;;;2.40;99.90;;;;;;5011862;28;20056;-77
2023/01/31 03:22:16;;;;;;;6.57;1.80;;;2.60;99.90;;;;;;5011914;28;20417;-77
2023/01/31 03:24:43;;;;;;;3.83;1.58;;;2.50;99.90;;;;;;5004416;28;20506;-76
2023/01/31 03:27:10;;;;;;;9.57;2.47;;;2.70;99.90;;;;;;5012376;28;20046;-77
2023/01/31 03:29:37;;;;;;;5.20;1.67;;;3.30;99.90;;;;;;5012088;28;20049;-77
2023/01/31 03:32:29;;;;;;;8.30;1.85;;;3.20;99.90;;;;;;5013904;28;20046;-76
2023/01/31 03:34:55;;;;;;;7.00;2.17;;;2.70;99.90;;;;;;5026077;28;20060;-77
2023/01/31 03:37:34;;;;;;;6.10;1.75;;;2.90;99.90;;;;;;5014867;28;20554;-78
2023/01/31 03:40:20;;;;;;;9.55;2.20;;;2.80;99.90;;;;;;5015544;28;20058;-78
2023/01/31 03:42:57;;;;;;;7.93;2.20;;;3.20;99.90;;;;;;4999330;28;20052;-79
2023/01/31 03:45:33;;;;;;;7.70;2.20;;;2.80;99.90;;;;;;5015541;28;20185;-78
2023/01/31 03:48:02;;;;;;;7.65;2.55;;;2.80;99.90;;;;;;5015177;28;20136;-78
2023/01/31 03:50:40;;;;;;;7.35;2.20;;;3.20;99.90;;;;;;4999950;28;20072;-78
2023/01/31 03:53:23;;;;;;;7.20;1.90;;;2.90;99.90;;;;;;5016005;28;20108;-78
2023/01/31 03:55:58;;;;;;;11.07;2.08;;;3.00;99.90;;;;;;5015043;28;20402;-79
2023/01/31 03:58:28;;;;;;;10.45;2.08;;;2.90;99.90;;;;;;5015036;28;20085;-79
2023/01/31 04:00:58;;;;;;;5.68;2.10;;;2.90;99.90;;;;;;5015002;28;20088;-78
2023/01/31 04:03:34;;;;;;;9.60;2.03;;;3.00;99.90;;;;;;5014816;28;20046;-78
2023/01/31 04:06:00;;;;;;;8.13;1.92;;;3.10;99.90;;;;;;5015757;28;20099;-79
2023/01/31 04:08:26;;;;;;;6.00;1.83;;;3.30;99.90;;;;;;5014888;28;20054;-77
2023/01/31 04:10:53;;;;;;;7.43;2.50;;;3.50;99.90;;;;;;4998457;28;20457;-78
2023/01/31 04:13:20;;;;;;;6.57;1.98;;;3.40;99.90;;;;;;5014937;28;20438;-78
2023/01/31 04:15:47;;;;;;;9.00;2.22;;;3.60;99.90;;;;;;5014490;28;20456;-78
2023/01/31 04:18:13;;;;;;;10.48;2.15;;;3.60;99.90;;;;;;5014615;28;20105;-77
2023/01/31 04:20:38;;;;;;;8.48;2.20;;;3.30;99.90;;;;;;4999047;28;20459;-77
2023/01/31 04:23:04;;;;;;;8.43;1.98;;;3.60;99.90;;;;;;4998488;28;20475;-77
2023/01/31 04:25:30;;;;;;;9.63;3.17;;;4.10;99.90;;;;;;5014335;28;20479;-78
2023/01/31 04:27:55;;;;;;;7.32;2.17;;;3.40;99.90;;;;;;5014449;28;20158;-78
2023/01/31 04:30:21;;;;;;;7.70;2.28;;;3.40;99.90;;;;;;5015148;28;20068;-77
2023/01/31 04:32:47;;;;;;;10.38;1.92;;;3.40;99.90;;;;;;5014816;28;20110;-78
2023/01/31 04:35:13;;;;;;;9.43;2.53;;;3.50;99.90;;;;;;5014538;28;20050;-78
2023/01/31 04:37:38;;;;;;;6.47;2.20;;;3.50;99.90;;;;;;5014226;28;20046;-77
2023/01/31 04:40:05;;;;;;;8.95;2.22;;;3.50;99.90;;;;;;5013720;28;20054;-78
2023/01/31 04:42:30;;;;;;;7.20;2.47;;;3.50;99.90;;;;;;4997514;28;20048;-78
2023/01/31 04:44:56;;;;;;;9.98;2.05;;;3.50;99.90;;;;;;5014903;28;20134;-77
2023/01/31 04:47:21;;;;;;;9.55;2.08;;;3.70;99.90;;;;;;5014102;28;20037;-79
2023/01/31 04:49:47;;;;;;;6.47;2.13;;;3.60;99.90;;;;;;5013714;28;20045;-78
2023/01/31 04:52:13;;;;;;;7.90;2.47;;;3.50;99.90;;;;;;4997591;28;20046;-78
2023/01/31 04:54:38;;;;;;;6.45;2.05;;;3.60;99.90;;;;;;4998010;28;20044;-78
2023/01/31 04:57:04;;;;;;;8.40;2.00;;;4.20;99.90;;;;;;5013481;28;20046;-78
2023/01/31 04:59:30;;;;;;;9.77;1.98;;;3.60;99.90;;;;;;5014056;28;20042;-78
2023/01/31 05:01:55;;;;;;;8.45;1.95;;;3.60;99.90;;;;;;4997716;28;20435;-78
2023/01/31 05:04:21;;;;;;;9.15;2.42;;;4.00;99.90;;;;;;4998166;28;20076;-78
2023/01/31 05:06:47;;;;;;;8.77;2.72;;;3.70;99.90;;;;;;5013544;28;20042;-77
2023/01/31 05:09:13;;;;;;;7.78;2.88;;;3.60;99.90;;;;;;5014277;28;20387;-77
2023/01/31 05:11:39;;;;;;;7.93;2.42;;;3.90;99.90;;;;;;4997254;28;20041;-78
2023/01/31 05:14:04;;;;;;;8.18;2.10;;;3.70;99.90;;;;;;4997262;28;20631;-78
2023/01/31 05:16:30;;;;;;;9.18;3.10;;;3.60;99.90;;;;;;5013024;28;20084;-78
2023/01/31 05:18:56;;;;;;;6.38;2.50;;;3.70;99.90;;;;;;5014186;28;20076;-78
2023/01/31 05:21:21;;;;;;;9.70;2.42;;;3.70;99.90;;;;;;5013430;28;20081;-78
2023/01/31 05:23:47;;;;;;;10.52;2.47;;;3.70;99.90;;;;;;5013421;28;20438;-77
2023/01/31 05:26:13;;;;;;;13.23;2.75;;;3.70;99.90;;;;;;4980875;28;20081;-77
2023/01/31 05:28:38;;;;;;;13.43;3.08;;;4.00;99.90;;;;;;5014123;28;20391;-77
2023/01/31 05:31:06;;;;;;;10.02;3.63;;;3.70;99.90;;;;;;5013270;28;20045;-77
2023/01/31 05:33:33;;;;;;;7.63;2.33;;;4.10;99.90;;;;;;4996953;28;20081;-79
2023/01/31 05:35:59;;;;;;;13.10;3.15;;;3.70;99.90;;;;;;5013217;28;20061;-78
2023/01/31 05:38:25;;;;;;;8.18;3.28;;;3.70;99.90;;;;;;4997096;28;20125;-77
2023/01/31 05:40:51;;;;;;;11.52;2.33;;;4.10;99.90;;;;;;5014645;28;20133;-78
2023/01/31 05:43:17;;;;;;;15.70;3.25;;;4.00;99.90;;;;;;5012991;28;20517;-79
2023/01/31 05:45:43;;;;;;;10.88;3.25;;;3.80;99.90;;;;;;5012996;28;20049;-78
2023/01/31 05:48:09;;;;;;;10.00;3.00;;;4.10;99.90;;;;;;5013611;28;20128;-78
2023/01/31 05:50:35;;;;;;;9.30;2.85;;;3.90;99.90;;;;;;5013253;28;20117;-77
2023/01/31 05:53:02;;;;;;;8.13;2.78;;;4.00;99.90;;;;;;5013699;28;20103;-78
2023/01/31 05:55:28;;;;;;;12.23;3.55;;;4.00;99.90;;;;;;4996384;28;20103;-78
2023/01/31 05:57:53;;;;;;;9.85;3.00;;;4.10;99.90;;;;;;5012897;28;20433;-78
2023/01/31 06:00:20;;;;;;;12.52;3.42;;;4.20;99.90;;;;;;4997271;28;20054;-78
2023/01/31 06:02:47;;;;;;;13.50;3.50;;;4.30;99.90;;;;;;4996172;28;20056;-77
2023/01/31 06:05:13;;;;;;;9.23;3.33;;;4.50;99.90;;;;;;5013046;28;20056;-78
2023/01/31 06:07:39;;;;;;;7.95;3.08;;;4.50;99.90;;;;;;4996077;28;20084;-78
2023/01/31 06:10:07;;;;;;;16.58;3.88;;;4.70;99.90;;;;;;5012605;28;20049;-77
2023/01/31 06:12:33;;;;;;;13.70;3.53;;;4.70;99.90;;;;;;5014097;28;20093;-78
2023/01/31 06:15:00;;;;;;;13.85;3.22;;;4.70;99.90;;;;;;5012668;28;20053;-78
2023/01/31 06:17:25;;;;;;;11.45;3.47;;;5.10;99.90;;;;;;4996181;28;20100;-78
2023/01/31 06:19:51;;;;;;;10.38;3.97;;;4.90;99.90;;;;;;4996345;28;20089;-78
2023/01/31 06:22:18;;;;;;;10.73;3.47;;;4.90;99.90;;;;;;5013590;28;20474;-79
2023/01/31 06:24:44;;;;;;;10.27;3.97;;;5.50;99.90;;;;;;5012461;28;20050;-79
2023/01/31 06:27:09;;;;;;;15.95;5.00;;;5.00;99.90;;;;;;5013085;28;20521;-78
2023/01/31 06:29:35;;;;;;;10.48;4.07;;;5.00;99.90;;;;;;5012789;28;20136;-79
2023/01/31 06:32:01;;;;;;;14.43;4.30;;;5.50;99.90;;;;;;5012479;28;20050;-78
2023/01/31 06:34:26;;;;;;;12.57;4.93;;;5.10;99.90;;;;;;5013017;28;20053;-78
2023/01/31 06:36:52;;;;;;;13.18;4.40;;;5.10;99.90;;;;;;5012749;28;20085;-77
2023/01/31 06:39:18;;;;;;;15.50;4.45;;;5.10;99.90;;;;;;5012631;28;20056;-78
2023/01/31 06:41:43;;;;;;;10.57;4.40;;;5.10;99.90;;;;;;5012050;28;20366;-78
2023/01/31 06:44:09;;;;;;;12.20;4.63;;;5.10;99.90;;;;;;5012341;28;20046;-77
2023/01/31 06:46:35;;;;;;;9.95;4.72;;;5.10;99.90;;;;;;5012253;28;20050;-79
2023/01/31 06:49:01;;;;;;;16.05;4.50;;;5.10;99.90;;;;;;5012314;28;20079;-79
2023/01/31 06:51:27;;;;;;;11.75;4.40;;;5.20;99.90;;;;;;4996081;28;20543;-79
2023/01/31 06:53:55;;;;;;;11.00;5.32;;;5.20;99.90;;;;;;5011960;28;20062;-78
2023/01/31 06:56:21;;;;;;;10.45;5.10;;;5.20;99.90;;;;;;5012232;28;20519;-79
2023/01/31 06:58:47;;;;;;;16.17;4.88;;;5.20;99.90;;;;;;4995864;28;20046;-79
2023/01/31 07:01:13;;;;;;;17.35;5.78;;;5.20;99.90;;;;;;4996016;28;20046;-79
2023/01/31 07:03:40;;;;;;;11.50;4.82;;;5.20;99.90;;;;;;5012113;28;20119;-79
2023/01/31 07:06:07;;;;;;;16.55;5.55;;;5.20;99.90;;;;;;5015143;28;20095;-79
2023/01/31 07:08:34;;;;;;;12.43;6.18;;;5.20;99.90;;;;;;4999744;28;20044;-79
2023/01/31 07:11:00;;;;;;;15.23;5.78;;;5.40;99.90;;;;;;5015894;28;20050;-80
2023/01/31 07:13:27;;;;;;;15.23;5.63;;;5.40;99.90;;;;;;4999650;28;20096;-79
2023/01/31 07:15:53;;;;;;;13.98;5.35;;;5.30;99.90;;;;;;5015204;28;20050;-79
2023/01/31 07:18:19;;;;;;;14.10;5.28;;;5.20;99.90;;;;;;5000163;28;20149;-79
2023/01/31 07:20:45;;;;;;;12.45;5.30;;;5.30;99.90;;;;;;5015718;28;20129;-78
2023/01/31 07:23:11;;;;;;;10.85;5.07;;;5.30;99.90;;;;;;5016556;28;20050;-74
2023/01/31 07:25:36;;;;;;;15.25;4.40;;;5.30;99.90;;;;;;5016950;28;20494;-73
2023/01/31 07:28:02;;;;;;;13.95;5.10;;;5.30;99.90;;;;;;4999399;28;20089;-73
2023/01/31 07:30:29;;;;;;;13.27;4.50;;;5.30;99.90;;;;;;5015957;28;20050;-73
2023/01/31 07:32:54;;;;;;;16.85;5.05;;;5.30;99.90;;;;;;5016268;28;20041;-75
2023/01/31 07:35:20;;;;;;;13.02;4.43;;;5.30;99.90;;;;;;5017093;28;20054;-73
2023/01/31 07:37:46;;;;;;;13.98;4.32;;;5.30;99.90;;;;;;5016161;28;20060;-72
2023/01/31 07:40:14;;;;;;;12.00;4.18;;;5.30;99.90;;;;;;5016820;28;20041;-73
2023/01/31 07:42:40;;;;;;;13.68;3.88;;;5.30;99.90;;;;;;5016646;28;20038;-73
2023/01/31 07:45:08;;;;;;;11.25;4.22;;;5.30;99.90;;;;;;5015922;28;20141;-72
2023/01/31 07:47:33;;;;;;;12.73;4.00;;;5.40;99.90;;;;;;5016303;28;20044;-72
2023/01/31 07:49:59;;;;;;;12.15;4.35;;;5.40;99.90;;;;;;5015607;28;20121;-73
2023/01/31 07:52:25;;;;;;;12.00;5.13;;;5.60;99.90;;;;;;5015831;28;20478;-73
2023/01/31 07:54:50;;;;;;;9.48;4.00;;;5.40;99.90;;;;;;5014766;28;20065;-73
2023/01/31 07:57:16;;;;;;;10.65;3.63;;;5.40;99.90;;;;;;5014720;28;20054;-72
2023/01/31 07:59:46;;;;;;;9.20;3.28;;;5.40;99.90;;;;;;5015263;28;20050;-73
2023/01/31 08:04:57;;;;;;;11.75;3.75;;;5.50;99.90;;;;;;5015564;28;20537;-72
2023/01/31 08:07:23;;;;;;;7.65;3.95;;;5.50;99.90;;;;;;5015481;28;20085;-72
2023/01/31 08:09:49;;;;;;;12.38;3.65;;;5.60;99.90;;;;;;5014392;28;20045;-73
2023/01/31 08:12:15;;;;;;;10.32;3.80;;;5.50;99.90;;;;;;5015545;28;20046;-80
2023/01/31 08:14:44;;;;;;;10.60;3.47;;;5.60;99.90;;;;;;5013984;28;20054;-81
2023/01/31 08:17:10;;;;;;;11.25;3.60;;;5.50;99.90;;;;;;5013677;28;20054;-81
2023/01/31 08:19:36;;;;;;;9.63;3.20;;;5.60;99.90;;;;;;5014523;28;20137;-83
2023/01/31 08:22:03;;;;;;;11.13;3.78;;;5.60;99.90;;;;;;5014414;28;20450;-79
2023/01/31 08:24:29;;;;;;;8.57;3.15;;;5.50;99.90;;;;;;5014440;28;20058;-81
2023/01/31 08:26:55;;;;;;;9.18;3.50;;;5.50;99.90;;;;;;4981470;28;20046;-82
2023/01/31 08:29:21;;;;;;;11.05;4.20;;;5.60;99.90;;;;;;5014164;28;20050;-79
2023/01/31 08:31:47;;;;;;;10.68;4.00;;;5.50;99.90;;;;;;4997892;28;20159;-80
2023/01/31 08:34:13;;;;;;;9.02;3.78;;;5.60;99.90;;;;;;5015062;28;20061;-80
2023/01/31 08:36:39;;;;;;;9.13;3.72;;;5.50;99.90;;;;;;4997558;28;20045;-81
2023/01/31 08:39:05;;;;;;;8.10;3.72;;;5.50;99.90;;;;;;5014282;28;20041;-80
2023/01/31 08:41:32;;;;;;;9.50;3.58;;;5.50;99.90;;;;;;5014384;28;20093;-80
2023/01/31 08:43:58;;;;;;;18.95;4.55;;;5.50;99.90;;;;;;5014013;28;20054;-80
2023/01/31 08:46:28;;;;;;;14.70;4.57;;;5.60;99.90;;;;;;4997584;28;20084;-79
2023/01/31 08:48:54;;;;;;;12.32;4.03;;;5.60;99.90;;;;;;5013877;28;20089;-80
2023/01/31 08:51:20;;;;;;;10.50;3.63;;;5.60;99.90;;;;;;5014789;28;20092;-81
2023/01/31 08:53:46;;;;;;;8.95;3.78;;;5.60;99.90;;;;;;5014052;28;20538;-79
2023/01/31 08:56:12;;;;;;;9.95;3.83;;;5.60;99.90;;;;;;4997742;28;20136;-80
2023/01/31 08:58:40;;;;;;;7.13;3.30;;;5.60;99.90;;;;;;4997408;28;20057;-79
2023/01/31 09:01:10;;;;;;;9.55;3.38;;;5.60;99.90;;;;;;4997417;28;20072;-80
2023/01/31 09:03:36;;;;;;;9.27;3.65;;;5.60;99.90;;;;;;5013757;28;20132;-79
2023/01/31 09:06:04;;;;;;;13.00;3.47;;;5.60;99.90;;;;;;4998106;28;20451;-78
2023/01/31 09:08:30;;;;;;;12.20;4.10;;;5.60;99.90;;;;;;5013836;28;20054;-80
2023/01/31 09:10:57;;;;;;;8.15;3.63;;;5.60;99.90;;;;;;5013602;28;20100;-80
2023/01/31 09:13:23;;;;;;;10.07;3.83;;;5.60;99.90;;;;;;5013322;28;20061;-80
2023/01/31 09:16:10;;;;;;;11.90;3.78;;;5.60;99.90;;;;;;5013258;28;20069;-79
2023/01/31 09:18:36;;;;;;;;;;;5.60;99.90;;;;;;5013884;28;20052;-80
2023/01/31 09:21:04;;;;;;;9.02;3.47;;;5.60;99.90;;;;;;5013741;28;19975;-79
2023/01/31 09:23:30;;;;;;;9.80;3.70;;;5.70;99.90;;;;;;5013510;28;20046;-81
2023/01/31 09:25:56;;;;;;;10.35;2.95;;;5.80;99.90;;;;;;5013209;28;20076;-79
2023/01/31 09:28:23;;;;;;;9.48;3.70;;;5.80;99.90;;;;;;5013906;28;20353;-80
2023/01/31 09:30:51;;;;;;;7.95;3.08;;;5.80;99.90;;;;;;5013161;28;20087;-80
2023/01/31 09:33:17;;;;;;;11.18;3.45;;;5.80;99.90;;;;;;5013572;28;20054;-80
2023/01/31 09:35:53;;;;;;;9.88;3.95;;;5.80;99.90;;;;;;4996459;28;20359;-79
2023/01/31 09:38:19;;;;;;;8.02;2.70;;;5.80;99.90;;;;;;4996880;28;20050;-79
2023/01/31 09:40:44;;;;;;;7.43;3.15;;;5.90;99.90;;;;;;5013773;28;20042;-80
2023/01/31 09:43:11;;;;;;;9.32;3.65;;;5.90;99.90;;;;;;4996494;28;20046;-80
2023/01/31 09:45:41;;;;;;;7.38;3.00;;;6.10;99.90;;;;;;4996973;28;20049;-79
2023/01/31 09:48:16;;;;;;;8.88;3.60;;;6.00;99.90;;;;;;5013775;28;20119;-78
2023/01/31 09:50:53;;;;;;;6.63;2.40;;;6.00;99.90;;;;;;5012634;28;20045;-79
2023/01/31 09:53:21;;;;;;;8.23;3.08;;;6.10;99.90;;;;;;5013983;28;20049;-79
2023/01/31 09:56:26;;;;;;;7.40;2.55;;;6.10;99.90;;;;;;5013104;28;20553;-78
2023/01/31 09:58:55;;;;;;;4.70;2.40;;;6.10;99.90;;;;;;5028198;28;20057;-80
2023/01/31 10:01:39;;;;;;;9.07;3.00;;;6.10;99.90;;;;;;4996389;28;20058;-79
2023/01/31 10:04:14;;;;;;;9.63;2.95;;;6.20;99.90;;;;;;5012627;28;20053;-79
2023/01/31 10:06:55;;;;;;;4.97;2.28;;;6.20;99.90;;;;;;5013307;28;20046;-78
2023/01/31 10:09:53;;;;;;;10.95;2.55;;;6.30;99.90;;;;;;4996193;28;20058;-79
2023/01/31 10:12:35;;;;;;;8.45;2.60;;;6.30;99.90;;;;;;5012632;28;20082;-79
2023/01/31 10:15:13;;;;;;;8.50;2.67;;;6.40;99.90;;;;;;4995937;28;20054;-79
2023/01/31 10:17:48;;;;;;;5.40;2.30;;;6.30;99.90;;;;;;5012335;28;20061;-80
2023/01/31 10:20:21;;;;;;;7.10;2.33;;;6.40;99.90;;;;;;5012841;28;20502;-79
2023/01/31 10:23:10;;;;;;;11.30;3.10;;;6.40;99.90;;;;;;4995834;28;20050;-80
2023/01/31 10:25:45;;;;;;;5.97;2.65;;;6.50;99.90;;;;;;5012176;28;20045;-82
2023/01/31 10:28:14;;;;;;;9.50;2.92;;;6.50;99.90;;;;;;5013368;28;20081;-80
2023/01/31 10:31:01;;;;;;;8.05;3.28;;;6.50;99.90;;;;;;5012537;28;20053;-79
2023/01/31 10:33:45;;;;;;;8.65;2.78;;;6.50;99.90;;;;;;5012848;28;20060;-78
2023/01/31 10:36:22;;;;;;;6.35;1.80;;;6.50;99.90;;;;;;4996873;28;20205;-81
2023/01/31 10:38:50;;;;;;;4.68;2.35;;;6.50;99.90;;;;;;5013142;28;20484;-79
2023/01/31 10:41:45;;;;;;;10.00;2.50;;;6.50;99.90;;;;;;4997897;28;20042;-81
2023/01/31 10:44:23;;;;;;;9.25;3.13;;;6.50;99.90;;;;;;5016665;28;20402;-80
2023/01/31 10:46:51;;;;;;;10.57;3.03;;;6.60;99.90;;;;;;5016644;28;20386;-79
2023/01/31 10:49:22;;;;;;;7.40;2.80;;;6.60;99.90;;;;;;5016479;28;20038;-80
2023/01/31 10:52:28;;;;;;;6.38;2.83;;;6.60;99.90;;;;;;5016971;28;20394;-81
2023/01/31 10:55:13;;;;;;;5.85;2.58;;;6.70;99.90;;;;;;5015851;28;20050;-82
2023/01/31 10:57:39;;;;;;;6.32;2.65;;;6.60;99.90;;;;;;4999774;28;20435;-81
2023/01/31 11:00:06;;;;;;;8.32;3.13;;;6.60;99.90;;;;;;5000144;28;20085;-81
2023/01/31 11:02:32;;;;;;;8.07;3.15;;;6.50;99.90;;;;;;4999915;28;20089;-80
2023/01/31 11:04:58;;;;;;;9.65;3.00;;;6.50;99.90;;;;;;5016361;28;20081;-80
2023/01/31 11:07:28;;;;;;;8.15;3.10;;;6.50;99.90;;;;;;5015730;28;20053;-79
2023/01/31 11:09:54;;;;;;;9.30;3.40;;;6.40;99.90;;;;;;5015797;28;20132;-80
2023/01/31 11:12:37;;;;;;;7.55;2.83;;;6.40;99.90;;;;;;5016631;28;20085;-80
2023/01/31 11:15:14;;;;;;;6.65;2.65;;;6.30;99.90;;;;;;5016519;28;20104;-80
2023/01/31 11:17:42;;;;;;;10.48;3.50;;;6.30;99.90;;;;;;4998770;28;20503;-81
2023/01/31 11:20:23;;;;;;;8.93;3.38;;;6.30;99.90;;;;;;5000069;28;20062;-80
2023/01/31 11:22:51;;;;;;;7.22;2.85;;;6.30;99.90;;;;;;4999547;28;20133;-83
2023/01/31 11:25:23;;;;;;;7.32;3.20;;;6.30;99.90;;;;;;5016344;28;20056;-81
2023/01/31 11:27:52;;;;;;;8.52;3.60;;;6.30;99.90;;;;;;5015243;28;20107;-81
2023/01/31 11:30:27;;;;;;;10.00;3.00;;;6.30;99.90;;;;;;4999931;28;20100;-81
2023/01/31 11:32:53;;;;;;;8.73;2.35;;;6.30;99.90;;;;;;4999482;28;20140;-82
2023/01/31 11:35:18;;;;;;;8.88;3.30;;;6.30;99.90;;;;;;5015378;28;20089;-81
2023/01/31 11:38:03;;;;;;;7.50;3.10;;;6.30;99.90;;;;;;5015751;28;20049;-81
2023/01/31 11:40:37;;;;;;;7.90;2.67;;;6.30;99.90;;;;;;5015947;28;20398;-81
2023/01/31 11:43:05;;;;;;;10.27;3.63;;;6.50;99.90;;;;;;5015298;28;20054;-81
2023/01/31 11:45:37;;;;;;;9.57;3.00;;;6.30;99.90;;;;;;5015086;28;20050;-80
2023/01/31 11:48:10;;;;;;;8.82;3.65;;;6.40;99.90;;;;;;5015314;28;20042;-83
2023/01/31 11:50:53;;;;;;;10.18;3.33;;;6.40;99.90;;;;;;5015174;28;20050;-81
2023/01/31 11:53:23;;;;;;;9.25;3.30;;;6.50;99.90;;;;;;5014038;28;20054;-80
2023/01/31 11:55:53;;;;;;;7.47;2.63;;;6.40;99.90;;;;;;5015191;28;20057;-78
2023/01/31 11:58:22;;;;;;;11.38;3.58;;;6.50;99.90;;;;;;5015305;28;20111;-81
2023/01/31 12:01:05;;;;;;;8.90;2.78;;;6.50;99.90;;;;;;5014729;28;20046;-81
2023/01/31 12:03:31;;;;;;;7.30;3.28;;;6.50;99.90;;;;;;5015753;28;20057;-80
2023/01/31 12:06:06;;;;;;;8.55;3.03;;;6.50;99.90;;;;;;5014619;28;20107;-78
2023/01/31 12:08:35;;;;;;;9.48;3.13;;;6.50;99.90;;;;;;4998444;28;20137;-79
2023/01/31 12:11:25;;;;;;;11.68;3.03;;;6.50;99.90;;;;;;4998687;28;20069;-80
2023/01/31 12:13:59;;;;;;;7.20;2.67;;;6.50;99.90;;;;;;5015382;28;20148;-79
2023/01/31 12:16:27;;;;;;;7.38;2.28;;;6.50;99.90;;;;;;5014311;28;20487;-81
2023/01/31 12:19:11;;;;;;;5.10;2.45;;;6.50;99.90;;;;;;5014645;28;20054;-80
2023/01/31 12:21:58;;;;;;;9.20;2.72;;;6.50;99.90;;;;;;4998591;28;20053;-82
2023/01/31 12:24:48;;;;;;;4.00;2.38;;;6.60;99.90;;;;;;5014838;28;20360;-81
2023/01/31 12:27:24;;;;;;;7.82;3.08;;;6.70;99.90;;;;;;4998772;28;20061;-81
2023/01/31 12:30:29;;;;;;;8.57;2.30;;;6.80;99.90;;;;;;5015309;28;20050;-81
2023/01/31 12:33:40;;;;;;;10.57;3.00;;;6.80;99.90;;;;;;5013569;28;20457;-82
2023/01/31 12:36:18;;;;;;;7.55;2.20;;;6.90;99.90;;;;;;5015266;28;20138;-82
2023/01/31 12:39:14;;;;;;;7.32;2.30;;;6.90;99.90;;;;;;5013760;28;20050;-82
2023/01/31 12:42:10;;;;;;;5.32;1.95;;;6.90;99.90;;;;;;5013959;28;20046;-82
2023/01/31 12:44:50;;;;;;;6.53;2.42;;;7.00;99.90;;;;;;5014780;28;20042;-83
2023/01/31 12:47:22;;;;;;;6.72;2.13;;;7.00;99.90;;;;;;4997612;28;20045;-78
2023/01/31 12:49:50;;;;;;;8.57;2.30;;;7.10;99.90;;;;;;4998372;28;20050;-82
2023/01/31 12:52:48;;;;;;;7.57;2.03;;;7.10;99.90;;;;;;4997428;28;20045;-82
2023/01/31 12:55:32;;;;;;;7.80;2.50;;;7.20;99.90;;;;;;4993464;28;20441;-82
2023/01/31 12:58:39;;;;;;;9.25;2.53;;;7.30;99.90;;;;;;5013427;28;20046;-82
2023/01/31 13:01:20;;;;;;;7.85;2.60;;;7.30;99.90;;;;;;5014524;28;20091;-81
2023/01/31 13:04:24;;;;;;;5.80;2.03;;;7.30;99.90;;;;;;5013790;28;20069;-80
2023/01/31 13:06:55;;;;;;;5.93;2.22;;;7.30;99.90;;;;;;5014410;28;20514;-80
2023/01/31 13:09:31;;;;;;;11.75;2.40;;;7.30;99.90;;;;;;5013565;28;20521;-80
2023/01/31 13:12:01;;;;;;;4.25;1.73;;;7.30;99.90;;;;;;4981355;28;20041;-81
2023/01/31 13:14:33;;;;;;;10.77;2.60;;;7.40;99.90;;;;;;5013285;28;20093;-81
2023/01/31 13:17:03;;;;;;;9.38;1.88;;;7.40;99.90;;;;;;5013204;28;20561;-79
2023/01/31 13:19:38;;;;;;;6.50;2.03;;;7.40;99.90;;;;;;4996963;28;20457;-81
2023/01/31 13:22:19;;;;;;;7.30;2.40;;;7.40;99.90;;;;;;5013432;28;20081;-82
2023/01/31 13:24:48;;;;;;;6.68;2.30;;;7.40;99.90;;;;;;5014039;28;20444;-83